Shreveport Regional Airport
KSHV : now visible

Airfield :











YOU CAN JOIN US ON...

 
LOGIN :

Register | Disclaimer

   EN    FR    IT 

 









Legend :    VFR   Marginal VFR   IFR   Intensive IFR   Very Intensive IFR
Visi :
Ceiling :
>= 8 km
>= 3000ft
5 to 8 km
1000 to 3000 ft
1500m to 5 km
500 to 1000 ft
800 to 1500m
200 to 500 ft
< 800m
< 200 ft
Symbols :   Thunderstorms  Fog  Heavy snow  Heavy precipitations  Wind > 20 kt







- Airport Elevation : 258 ft
- IATA code : SHV


KSHV - Shreveport Regional

CURRENT METAR :
  • 260256Z 14006KT 10SM FEW150 27/24 A2982 RMK AO2 SLP093 T02720239 53015

EXPIRED METARs :
  • 260156Z 13005KT 10SM FEW070 SCT150 28/24 A2980 RMK AO2 SLP087 T02780239
  • 260056Z 15006KT 10SM FEW070 SCT150 28/24 A2978 RMK AO2 SLP080 T02830239

TAF KSHV
Valid from the 26 at 00:00 until the 27 at 00:00 UTC


252320Z 2600/2624 16011KT P6SM FEW030 FEW120 SCT200
FM260600 15003KT P6SM OVC015
FM260900 17003KT 6SM BR OVC015
FM261100 18004KT 4SM BR OVC007
FM261400 21008KT P6SM OVC015
FM261800 19005KT P6SM SCT040
No reported NOTAMs for that airfield.



MET'MAP, your aeronautical weather chart ! - Copyright ORBIFLY December 2007 - Disclaimer

ORBIFLY MET'MAP TEAM :

Programming & Development : Alexandra Zaïnal
Concept & Development : Baudouin d'Aumeries
Co-Development & Prog : Marc-Olivier Méhu
Technical & hardware support : Manuel Goepfert

Contact : metmap@orbifly.com




SOURCES & CREDITS :

   NOAA       Earth
Advisory